SBPG/PNG METAR and TAF weather

Enter ICAO airport designator
Station Type Date Time Source
SBPG METAR 2020/09/29 21:00 UTC NOAA

SBPG 292100Z 08008KT CAVOK 21/18 Q1017


Station Type Date Time Source
SBPG Decoded METAR 2020/09/29 21:00 UTC NOAA

Paranagua, Brazil (SBPG) 25-31S 048-31W
Sep 29, 2020 - 05:00 PM EDT / 2020.09.29 2100 UTC
Wind: from the E (080 degrees) at 9 MPH (8 KT):0
Visibility: greater than 7 mile(s):0
Temperature: 69 F (21 C)
Dew Point: 64 F (18 C)
Relative Humidity: 82%
Pressure (altimeter): 30.03 in. Hg (1017 hPa)
ob: SBPG 292100Z 08008KT CAVOK 21/18 Q1017
cycle: 21

Station Type Date Time Source
SBPG TAF UTC NOAA

Error!

Example: see airport list